航空気象通報

ウインドサーファーのための航空気象通報による風予報です。

6/30-7/1の航空気象通報(国内、海外)

2012年06月30日 23時04分28秒 | TAF

羽田空港
TAF RJTT 300852Z 3009/0112 08010KT 9999 FEW020 SCT050
     BECMG 3013/3015 04008KT
     BECMG 3021/3024 09008KT
日本時間30日18-22時:080度から10ノットの風
22-24時:風が変化
1日00-06時:040度から8ノットの風
06-09時:風が変化
09-21時:090度から8ノットの風

静岡空港
TAF RJNS 300848Z 3009/0112 13005KT 9999 SCT010 BKN030
     TEMPO 3015/3024 3000 RA BR FEW002 BKN005
     BECMG 0100/0103 4000 -SHRA BR
     TEMPO 0106/0112 1200 SHRA BR FEW002 BKN005
日本時間30日18時-1日21時:130度から5ノットの風
、1日09-12時の後、
但し、1日00-09時の間:ときどき

福岡空港
TAF RJFF 300846Z 3009/0112 17011KT 9999 -SHRA FEW010 SCT020 BKN030
     TEMPO 3014/3018 1500 TSRA BR FEW010 SCT015 BKN020 FEW025CB
     TEMPO 3018/0103 4000 SHRA BR
     BECMG 0103/0106 29009KT
日本時間30日18時-1日12時:170度から11ノットの風
12-15時:風が変化
15-21時:290度から9ノットの風

但し、30日22時-1日03時の間:ときどき

那覇空港
TAF ROAH 300837Z 3009/0112 18011KT 9999 FEW015
日本時間30日18時-1日21時:180度から11ノットの風

マウイのカフルイ空港
PHOG 301120Z 3012/0112 06010KT P6SM SCT040 BKN050
     FM302000 06012G22KT P6SM SCT050
     FM010000 06015G25KT P6SM SCT050
     FM010400 06012G22KT P6SM SCT050
     FM011000 06010KT P6SM SCT050 AMD LTD TO WX VIS AND WIND TIL 301600
ハワイ時間30日02-10時:060度から10ノットの風

10-14時:060度から12ノット、突風22ノット
14-18時:060度から15ノット、突風25ノット
18-24時:060度から12ノット、突風22ノット
1日00-02時:060度から10ノットの風

サイパン空港
PGSN 301136Z 3012/0112 11010KT P6SM VCSH SCT015 SCT040 BKN120
     FM302200 06011KT P6SM VCSH SCT020 SCT040 BKN120
マリアナ時間30日22時-1日08時:110度から10ノットの風
08-21時:060度から11ノットの風

コメント
この記事をはてなブックマークに追加

6/28-6/29の航空気象通報(国内、海外)

2012年06月28日 22時56分20秒 | TAF

羽田空港
TAF RJTT 280836Z 2809/2912 14008KT 9999 FEW020 BKN050
     BECMG 2818/2821 04014KT
     TEMPO 2818/2821 4000 -RA BR FEW005 BKN008
日本時間28日18時-29日03時:140度から8ノットの風
03-06時:風が変化
06-21時:040度から14ノットの風

但し、29日03-06時の間:ときどき

静岡空港
TAF AMD RJNS 281209Z 2812/2912 05008KT 9999 FEW020 BKN050
     BECMG 2903/2906 18010KT
日本時間28日18-29日12時:050度から8ノットの風
12-15時:風が変化
15-21時:180度から10ノットの風

福岡空港
TAF RJFF 280841Z 2809/2912 34007KT 9999 FEW020
     BECMG 2813/2815 14003KT
     BECMG 2900/2903 30007KT
日本時間28日18-22時:340度から7ノットの風
22-24時:風が変化
29日00-09時:140度から3ノットの風
09-12時:風が変化
12-21時:330度から7ノットの風

那覇空港
TAF ROAH 280837Z 2809/2912 14010KT 9999 SCT015
日本時間28日18時-29日21時:140度から10ノットの風

マウイのカフルイ空港
PHOG 281133Z 2812/2912 05010KT P6SM VCSH SCT025 BKN050
     FM282000 05015G25KT P6SM VCSH SCT025 BKN050
     FM290400 05010KT P6SM SCT025 SCT050 AMD LTD TO WX VIS AND WIND TIL 281600
ハワイ時間28日02-10時:050度から10ノットの風
10-18時:050度から15ノット、突風25ノット
18時-29日02時:050度から10ノットの風

サイパン空港
PGSN 281231Z 2813/2912 08011KT P6SM VCSH SCT020 SCT040
     TEMPO 2813/2815 05014G25KT 3SM +SHRA BKN016 OVC030
マリアナ時間28日23時-29日21時:080度から11ノットの風
但し、28日23時-29日01時の間:ときどき050度から14ノット、突風25ノット

但し、28日23時-29日01時の間:ときどき

コメント
この記事をはてなブックマークに追加

6/27-6/28の航空気象通報(国内、海外)

2012年06月27日 22時57分05秒 | TAF

羽田空港
TAF RJTT 270838Z 2709/2812 12010KT 9999 FEW020
日本時間27日18時-28日21時:120度から10ノットの風

静岡空港
TAF RJNS 270839Z 2709/2812 14006KT 9999 FEW010 SCT020
     BECMG 2712/2714 36004KT
     BECMG 2721/2724 07010KT
     TEMPO 2806/2812 4000 RA BR FEW006 BKN009
日本時間27日18-21時:140度から6ノットの風
21-23時:風が変化
23時-28日06時:360度から4ノットの風
06-09時:風が変化
09-21時:070度から10ノットの風

但し、28日15-21時の間:ときどき

福岡空港
TAF RJFF 270840Z 2709/2812 08008KT 8000 -RA FEW008 SCT020 BKN030
     TEMPO 2710/2717 4000 RA BR
     BECMG 2714/2716 05005KT
日本時間27日18-23時:080度から8ノットの風
23時-28日01時:風が変化
01-21時:050度から5ノットの風

那覇空港
TAF ROAH 270837Z 2709/2812 16009KT 9999 FEW015
日本時間27日18時-28日21時:160度から9ノットの風

マウイのカフルイ空港
PHOG 271137Z 2712/2812 05012KT P6SM SCT030 SCT050
     TEMPO 2716/2720 05012G20KT
     FM272000 05018G28KT P6SM SCT030 SCT050
     FM280500 05012G20KT P6SM SCT030 SCT050
     TEMPO 2808/2812 05012KT AMD LTD TO WX VIS AND WIND TIL 271600
ハワイ時間27日02-10時:050度から12ノットの風
10-19時:050度から18ノット、突風28ノット
19時-28日02時:050度から12ノット、突風20ノット

サイパン空港
PGSN 271126Z 2712/2812 07011KT P6SM VCSH SCT020 SCT040
マリアナ時間27日22時-28日21時:070度から11ノットの風

コメント
この記事をはてなブックマークに追加

6/26-6/27の航空気象通報(国内、海外)

2012年06月26日 22時55分22秒 | TAF

羽田空港
TAF RJTT 260847Z 2609/2712 05012KT 9999 FEW030
     BECMG 2700/2703 08010KT
日本時間26日18時-27日09時:050度から12ノットの風
09-12時:風が変化
12-21時:080度から10ノットの風

静岡空港
TAF RJNS 260842Z 2609/2712 16008KT 9999 FEW030 SCT050
     BECMG 2616/2618 01004KT
     BECMG 2700/2703 12008KT
日本時間26日18時-27日01時:160度から8ノットの風
01-03時:風が変化
03-09時:010度から4ノットの風
09-12時:風が変化
12-21時:120度から8ノットの風

福岡空港
TAF RJFF 260837Z 2609/2712 12006KT 9999 FEW020 SCT045
日本時間26日18時-27日21時:120度から6ノットの風

那覇空港
TAF ROAH 260838Z 2609/2712 19010KT 9999 FEW015 SCT030
日本時間26日18時-27日21時:190度から10ノットの風

マウイのカフルイ空港
PHOG 261134Z 2612/2712 05013KT P6SM FEW030 SCT050
     FM262000 05024G32KT P6SM FEW030 SCT050
     FM270700 05013KT P6SM FEW030 SCT050 AMD LTD TO WX VIS AND WIND TIL 261600
ハワイ時間26日02-10時:050度から13ノットの風
10-21時:050度から24ノット、突風32ノット
21時-27日02時:050度から13ノットの風

サイパン空港
PGSN 261120Z 2612/2712 08008KT P6SM VCSH FEW020 SCT050
マリアナ時間26日22時-27日21時:080度から8ノットの風

コメント
この記事をはてなブックマークに追加

6/25-6/26の航空気象通報(国内、海外)

2012年06月25日 23時49分08秒 | TAF

羽田空港
TAF RJTT 250846Z 2509/2612 05014KT 9999 FEW020 BKN040
     BECMG 2600/2603 08012KT
日本時間25日18時-26日09時:050度から14ノットの風
09-12時:風が変化
12-21時:080度から12ノットの風

静岡空港
TAF RJNS 250838Z 2509/2612 08006KT 9999 FEW015 SCT030
     BECMG 2515/2517 34004KT
     BECMG 2521/2524 08008KT
日本時間25日18-24時:080度から6ノットの風
26日00-02時:風が変化
02-06時:340度から4ノットの風
06-09時:風が変化
09-21時:080度から8ノットの風
  

福岡空港
TAF RJFF 250844Z 2509/2612 08008KT 9999 FEW010 SCT020 BKN030
     BECMG 2512/2514 05005KT
日本時間25日18-21時:080度から8ノットの風
21-23時:風が変化
23時-26日06時:010度から6ノットの風
06-09時:風が変化
09-21時:100度から5ノットの風

那覇空港
TAF ROAH 250836Z 2509/2612 19010KT 9999 FEW010 SCT030
日本時間24日18時-25日21時:190度から10ノットの風

マウイのカフルイ空港
PHOG 251128Z 2512/2612 05013G20KT P6SM FEW035 SCT050
     FM252000 06023G33KT P6SM FEW030 BKN050
     FM260500 06014G22KT P6SM FEW035 SCT050 AMD LTD TO WX VIS AND WIND TIL 251600
ハワイ時間25日02-10時:050度から13ノット、突風20ノット

10-19時:060度から23ノット、突風33ノット

19時-25日02時:060度から14ノット、突風22ノット

サイパン空港
PGSN 251120Z 2512/2612 09007KT P6SM VCSH FEW020 SCT040
マリアナ時間25日22時-26日21時:090度から7ノットの風

コメント
この記事をはてなブックマークに追加